sensor_id;sensor_type;location;lat;lon;timestamp;temperature;humidity
49124;DHT22;48506;48.202;16.274;2023-03-01T00:01:32;1.00;87.90
49124;DHT22;48506;48.202;16.274;2023-03-01T00:03:59;1.00;87.80
49124;DHT22;48506;48.202;16.274;2023-03-01T00:06:26;1.00;88.10
49124;DHT22;48506;48.202;16.274;2023-03-01T00:08:53;1.00;87.90
49124;DHT22;48506;48.202;16.274;2023-03-01T00:11:23;1.00;87.80
49124;DHT22;48506;48.202;16.274;2023-03-01T00:13:52;1.00;88.20
49124;DHT22;48506;48.202;16.274;2023-03-01T00:16:21;0.90;88.20
49124;DHT22;48506;48.202;16.274;2023-03-01T00:18:47;0.90;88.70
49124;DHT22;48506;48.202;16.274;2023-03-01T00:21:14;0.90;88.40
49124;DHT22;48506;48.202;16.274;2023-03-01T00:23:40;0.90;88.40
49124;DHT22;48506;48.202;16.274;2023-03-01T00:26:08;0.90;88.60
49124;DHT22;48506;48.202;16.274;2023-03-01T00:28:35;0.80;88.50
49124;DHT22;48506;48.202;16.274;2023-03-01T00:31:06;0.80;88.70
49124;DHT22;48506;48.202;16.274;2023-03-01T00:33:33;0.80;88.70
49124;DHT22;48506;48.202;16.274;2023-03-01T00:35:59;0.80;88.90
49124;DHT22;48506;48.202;16.274;2023-03-01T00:38:26;0.80;89.00
49124;DHT22;48506;48.202;16.274;2023-03-01T00:40:52;0.80;89.00
49124;DHT22;48506;48.202;16.274;2023-03-01T00:43:19;0.80;89.20
49124;DHT22;48506;48.202;16.274;2023-03-01T00:45:45;0.80;89.10
49124;DHT22;48506;48.202;16.274;2023-03-01T00:48:10;0.80;89.30
49124;DHT22;48506;48.202;16.274;2023-03-01T00:50:36;0.80;89.30
49124;DHT22;48506;48.202;16.274;2023-03-01T00:53:02;0.70;89.10
49124;DHT22;48506;48.202;16.274;2023-03-01T00:55:29;0.70;89.00
49124;DHT22;48506;48.202;16.274;2023-03-01T00:57:55;0.70;89.10
49124;DHT22;48506;48.202;16.274;2023-03-01T01:00:21;0.70;89.20
49124;DHT22;48506;48.202;16.274;2023-03-01T01:02:48;0.70;89.20
49124;DHT22;48506;48.202;16.274;2023-03-01T01:05:18;0.70;89.20
49124;DHT22;48506;48.202;16.274;2023-03-01T01:07:47;0.60;89.30
49124;DHT22;48506;48.202;16.274;2023-03-01T01:10:14;0.60;89.40
49124;DHT22;48506;48.202;16.274;2023-03-01T01:12:46;0.60;89.50
49124;DHT22;48506;48.202;16.274;2023-03-01T01:15:13;0.60;89.90
49124;DHT22;48506;48.202;16.274;2023-03-01T01:17:42;0.60;90.00
49124;DHT22;48506;48.202;16.274;2023-03-01T01:20:08;0.50;89.80
49124;DHT22;48506;48.202;16.274;2023-03-01T01:22:35;0.50;90.00
49124;DHT22;48506;48.202;16.274;2023-03-01T01:25:01;0.50;89.80
49124;DHT22;48506;48.202;16.274;2023-03-01T01:27:27;0.50;90.00
49124;DHT22;48506;48.202;16.274;2023-03-01T01:29:53;0.50;90.00
49124;DHT22;48506;48.202;16.274;2023-03-01T01:32:19;0.40;90.10
49124;DHT22;48506;48.202;16.274;2023-03-01T01:34:45;0.50;90.40
49124;DHT22;48506;48.202;16.274;2023-03-01T01:37:12;0.50;90.30
49124;DHT22;48506;48.202;16.274;2023-03-01T01:39:37;0.40;90.30
49124;DHT22;48506;48.202;16.274;2023-03-01T01:42:03;0.50;90.50
49124;DHT22;48506;48.202;16.274;2023-03-01T01:44:30;0.50;90.60
49124;DHT22;48506;48.202;16.274;2023-03-01T01:47:00;0.50;90.60
49124;DHT22;48506;48.202;16.274;2023-03-01T01:49:53;0.60;90.70
49124;DHT22;48506;48.202;16.274;2023-03-01T01:52:29;0.60;91.00
49124;DHT22;48506;48.202;16.274;2023-03-01T01:55:01;0.70;90.90
49124;DHT22;48506;48.202;16.274;2023-03-01T01:57:36;0.70;90.70
49124;DHT22;48506;48.202;16.274;2023-03-01T02:00:08;0.70;90.70
49124;DHT22;48506;48.202;16.274;2023-03-01T02:02:36;0.80;90.70
49124;DHT22;48506;48.202;16.274;2023-03-01T02:05:12;0.80;90.80
49124;DHT22;48506;48.202;16.274;2023-03-01T02:07:41;0.80;90.90
49124;DHT22;48506;48.202;16.274;2023-03-01T02:10:08;0.90;90.80
49124;DHT22;48506;48.202;16.274;2023-03-01T02:12:36;0.90;90.80
49124;DHT22;48506;48.202;16.274;2023-03-01T02:15:02;1.00;90.90
49124;DHT22;48506;48.202;16.274;2023-03-01T02:17:29;1.00;90.70
49124;DHT22;48506;48.202;16.274;2023-03-01T02:22:35;1.10;90.50
49124;DHT22;48506;48.202;16.274;2023-03-01T02:25:11;1.00;90.60
49124;DHT22;48506;48.202;16.274;2023-03-01T02:30:15;1.00;90.80
49124;DHT22;48506;48.202;16.274;2023-03-01T02:32:42;1.00;90.90
49124;DHT22;48506;48.202;16.274;2023-03-01T02:35:13;1.00;90.80
49124;DHT22;48506;48.202;16.274;2023-03-01T02:37:41;1.10;91.00
49124;DHT22;48506;48.202;16.274;2023-03-01T02:40:13;1.10;91.00
49124;DHT22;48506;48.202;16.274;2023-03-01T02:42:50;1.20;91.10
49124;DHT22;48506;48.202;16.274;2023-03-01T02:45:16;1.20;91.10
49124;DHT22;48506;48.202;16.274;2023-03-01T02:47:42;1.30;91.10
49124;DHT22;48506;48.202;16.274;2023-03-01T02:53:13;1.40;90.90
49124;DHT22;48506;48.202;16.274;2023-03-01T02:55:42;1.40;90.80
49124;DHT22;48506;48.202;16.274;2023-03-01T02:58:08;1.50;90.60
49124;DHT22;48506;48.202;16.274;2023-03-01T03:00:37;1.50;90.70
49124;DHT22;48506;48.202;16.274;2023-03-01T03:03:13;1.40;90.70
49124;DHT22;48506;48.202;16.274;2023-03-01T03:05:39;1.40;90.70
49124;DHT22;48506;48.202;16.274;2023-03-01T03:08:05;1.40;90.80
49124;DHT22;48506;48.202;16.274;2023-03-01T03:10:35;1.40;91.00
49124;DHT22;48506;48.202;16.274;2023-03-01T03:13:07;1.50;91.10
49124;DHT22;48506;48.202;16.274;2023-03-01T03:15:34;1.50;91.00
49124;DHT22;48506;48.202;16.274;2023-03-01T03:18:03;1.50;90.90
49124;DHT22;48506;48.202;16.274;2023-03-01T03:20:30;1.60;90.80
49124;DHT22;48506;48.202;16.274;2023-03-01T03:22:58;1.50;90.70
49124;DHT22;48506;48.202;16.274;2023-03-01T03:25:26;1.50;90.90
49124;DHT22;48506;48.202;16.274;2023-03-01T03:27:53;1.40;90.90
49124;DHT22;48506;48.202;16.274;2023-03-01T03:30:25;1.50;91.10
49124;DHT22;48506;48.202;16.274;2023-03-01T03:32:51;1.50;91.20
49124;DHT22;48506;48.202;16.274;2023-03-01T03:35:32;1.50;91.10
49124;DHT22;48506;48.202;16.274;2023-03-01T03:38:01;1.60;91.30
49124;DHT22;48506;48.202;16.274;2023-03-01T03:40:32;1.60;91.30
49124;DHT22;48506;48.202;16.274;2023-03-01T03:42:58;1.60;90.90
49124;DHT22;48506;48.202;16.274;2023-03-01T03:45:24;1.60;91.10
49124;DHT22;48506;48.202;16.274;2023-03-01T03:47:50;1.60;90.90
49124;DHT22;48506;48.202;16.274;2023-03-01T03:50:17;1.60;90.90
49124;DHT22;48506;48.202;16.274;2023-03-01T03:52:44;1.60;91.10
49124;DHT22;48506;48.202;16.274;2023-03-01T03:55:11;1.60;91.20
49124;DHT22;48506;48.202;16.274;2023-03-01T03:57:39;1.60;91.10
49124;DHT22;48506;48.202;16.274;2023-03-01T04:00:07;1.60;91.10
49124;DHT22;48506;48.202;16.274;2023-03-01T04:02:44;1.60;91.10
49124;DHT22;48506;48.202;16.274;2023-03-01T04:05:12;1.60;91.20
49124;DHT22;48506;48.202;16.274;2023-03-01T04:07:41;1.60;91.20
49124;DHT22;48506;48.202;16.274;2023-03-01T04:10:10;1.70;91.10
49124;DHT22;48506;48.202;16.274;2023-03-01T04:12:36;1.60;91.20
49124;DHT22;48506;48.202;16.274;2023-03-01T04:15:04;1.60;91.30
49124;DHT22;48506;48.202;16.274;2023-03-01T04:17:39;1.70;91.40
49124;DHT22;48506;48.202;16.274;2023-03-01T04:20:07;1.70;91.30
49124;DHT22;48506;48.202;16.274;2023-03-01T04:22:33;1.80;91.30
49124;DHT22;48506;48.202;16.274;2023-03-01T04:24:59;1.80;91.30
49124;DHT22;48506;48.202;16.274;2023-03-01T04:27:35;1.90;91.30
49124;DHT22;48506;48.202;16.274;2023-03-01T04:30:03;1.90;91.10
49124;DHT22;48506;48.202;16.274;2023-03-01T04:32:29;1.90;91.00
49124;DHT22;48506;48.202;16.274;2023-03-01T04:34:55;2.00;91.10
49124;DHT22;48506;48.202;16.274;2023-03-01T04:37:21;2.00;91.00
49124;DHT22;48506;48.202;16.274;2023-03-01T04:39:47;2.00;91.10
49124;DHT22;48506;48.202;16.274;2023-03-01T04:42:14;2.00;91.20
49124;DHT22;48506;48.202;16.274;2023-03-01T04:44:40;2.00;91.00
49124;DHT22;48506;48.202;16.274;2023-03-01T04:47:06;2.00;91.20
49124;DHT22;48506;48.202;16.274;2023-03-01T04:49:32;2.00;91.10
49124;DHT22;48506;48.202;16.274;2023-03-01T04:51:58;2.00;91.20
49124;DHT22;48506;48.202;16.274;2023-03-01T04:54:34;2.10;91.30
49124;DHT22;48506;48.202;16.274;2023-03-01T04:57:02;2.10;91.40
49124;DHT22;48506;48.202;16.274;2023-03-01T04:59:28;2.10;91.40
49124;DHT22;48506;48.202;16.274;2023-03-01T05:01:55;2.20;91.40
49124;DHT22;48506;48.202;16.274;2023-03-01T05:04:24;2.20;91.20
49124;DHT22;48506;48.202;16.274;2023-03-01T05:06:50;2.20;91.10
49124;DHT22;48506;48.202;16.274;2023-03-01T05:09:17;2.30;91.20
49124;DHT22;48506;48.202;16.274;2023-03-01T05:11:42;2.30;91.10
49124;DHT22;48506;48.202;16.274;2023-03-01T05:14:09;2.30;91.10
49124;DHT22;48506;48.202;16.274;2023-03-01T05:16:35;2.30;91.00
49124;DHT22;48506;48.202;16.274;2023-03-01T05:19:03;2.30;90.90
49124;DHT22;48506;48.202;16.274;2023-03-01T05:21:42;2.30;90.90
49124;DHT22;48506;48.202;16.274;2023-03-01T05:24:27;2.30;91.10
49124;DHT22;48506;48.202;16.274;2023-03-01T05:26:53;2.30;91.10
49124;DHT22;48506;48.202;16.274;2023-03-01T05:29:20;2.40;91.00
49124;DHT22;48506;48.202;16.274;2023-03-01T05:31:57;2.40;90.90
49124;DHT22;48506;48.202;16.274;2023-03-01T05:34:25;2.40;90.90
49124;DHT22;48506;48.202;16.274;2023-03-01T05:36:53;2.40;91.10
49124;DHT22;48506;48.202;16.274;2023-03-01T05:39:21;2.40;91.00
49124;DHT22;48506;48.202;16.274;2023-03-01T05:41:51;2.50;91.10
49124;DHT22;48506;48.202;16.274;2023-03-01T05:44:17;2.50;91.30
49124;DHT22;48506;48.202;16.274;2023-03-01T05:46:44;2.50;91.20
49124;DHT22;48506;48.202;16.274;2023-03-01T05:49:11;2.50;91.20
49124;DHT22;48506;48.202;16.274;2023-03-01T05:51:39;2.60;91.10
49124;DHT22;48506;48.202;16.274;2023-03-01T05:54:05;2.60;91.10
49124;DHT22;48506;48.202;16.274;2023-03-01T05:56:36;2.60;90.90
49124;DHT22;48506;48.202;16.274;2023-03-01T05:59:04;2.60;90.90
49124;DHT22;48506;48.202;16.274;2023-03-01T06:01:34;2.60;90.90
49124;DHT22;48506;48.202;16.274;2023-03-01T06:04:00;2.60;90.90
49124;DHT22;48506;48.202;16.274;2023-03-01T06:06:27;2.70;91.10
49124;DHT22;48506;48.202;16.274;2023-03-01T06:08:54;2.80;91.00
49124;DHT22;48506;48.202;16.274;2023-03-01T06:11:21;2.80;90.80
49124;DHT22;48506;48.202;16.274;2023-03-01T06:13:47;2.80;90.70
49124;DHT22;48506;48.202;16.274;2023-03-01T06:16:14;2.80;90.60
49124;DHT22;48506;48.202;16.274;2023-03-01T06:18:40;2.80;90.80
49124;DHT22;48506;48.202;16.274;2023-03-01T06:21:08;2.80;90.70
49124;DHT22;48506;48.202;16.274;2023-03-01T06:23:35;2.80;90.70
49124;DHT22;48506;48.202;16.274;2023-03-01T06:26:05;2.90;90.90
49124;DHT22;48506;48.202;16.274;2023-03-01T06:28:32;2.90;90.80
49124;DHT22;48506;48.202;16.274;2023-03-01T06:30:58;2.90;90.60
49124;DHT22;48506;48.202;16.274;2023-03-01T06:33:24;2.90;90.50
49124;DHT22;48506;48.202;16.274;2023-03-01T06:35:50;3.00;90.50
49124;DHT22;48506;48.202;16.274;2023-03-01T06:38:16;3.00;90.50
49124;DHT22;48506;48.202;16.274;2023-03-01T06:40:45;3.00;90.60
49124;DHT22;48506;48.202;16.274;2023-03-01T06:43:11;3.10;90.70
49124;DHT22;48506;48.202;16.274;2023-03-01T06:45:39;3.20;90.80
49124;DHT22;48506;48.202;16.274;2023-03-01T06:48:05;3.30;90.70
49124;DHT22;48506;48.202;16.274;2023-03-01T06:50:33;3.30;90.50
49124;DHT22;48506;48.202;16.274;2023-03-01T06:52:59;3.40;90.50
49124;DHT22;48506;48.202;16.274;2023-03-01T06:55:25;3.50;90.30
49124;DHT22;48506;48.202;16.274;2023-03-01T06:58:10;3.50;89.80
49124;DHT22;48506;48.202;16.274;2023-03-01T07:00:36;3.60;89.40
49124;DHT22;48506;48.202;16.274;2023-03-01T07:03:03;3.60;89.40
49124;DHT22;48506;48.202;16.274;2023-03-01T07:05:29;3.60;88.40
49124;DHT22;48506;48.202;16.274;2023-03-01T07:07:56;3.70;88.90
49124;DHT22;48506;48.202;16.274;2023-03-01T07:10:22;3.70;88.50
49124;DHT22;48506;48.202;16.274;2023-03-01T07:12:48;3.70;88.20
49124;DHT22;48506;48.202;16.274;2023-03-01T07:15:14;3.80;88.10
49124;DHT22;48506;48.202;16.274;2023-03-01T07:17:41;3.80;88.00
49124;DHT22;48506;48.202;16.274;2023-03-01T07:20:07;3.90;87.80
49124;DHT22;48506;48.202;16.274;2023-03-01T07:22:33;4.00;87.70
49124;DHT22;48506;48.202;16.274;2023-03-01T07:24:59;4.10;87.60
49124;DHT22;48506;48.202;16.274;2023-03-01T07:27:25;4.10;87.30
49124;DHT22;48506;48.202;16.274;2023-03-01T07:29:51;4.10;87.40
49124;DHT22;48506;48.202;16.274;2023-03-01T07:32:17;4.20;87.30
49124;DHT22;48506;48.202;16.274;2023-03-01T07:34:43;4.30;87.30
49124;DHT22;48506;48.202;16.274;2023-03-01T07:37:09;4.30;86.90
49124;DHT22;48506;48.202;16.274;2023-03-01T07:39:35;4.40;86.40
49124;DHT22;48506;48.202;16.274;2023-03-01T07:42:00;4.40;86.50
49124;DHT22;48506;48.202;16.274;2023-03-01T07:44:26;4.50;85.80
49124;DHT22;48506;48.202;16.274;2023-03-01T07:46:53;4.60;86.30
49124;DHT22;48506;48.202;16.274;2023-03-01T07:49:22;4.70;85.90
49124;DHT22;48506;48.202;16.274;2023-03-01T07:51:48;4.80;85.90
49124;DHT22;48506;48.202;16.274;2023-03-01T07:54:14;4.80;85.60
49124;DHT22;48506;48.202;16.274;2023-03-01T07:56:40;5.00;85.50
49124;DHT22;48506;48.202;16.274;2023-03-01T07:59:06;5.00;85.50
49124;DHT22;48506;48.202;16.274;2023-03-01T08:01:32;5.10;85.00
49124;DHT22;48506;48.202;16.274;2023-03-01T08:03:58;5.20;84.50
49124;DHT22;48506;48.202;16.274;2023-03-01T08:06:24;5.20;84.10
49124;DHT22;48506;48.202;16.274;2023-03-01T08:08:50;5.20;84.00
49124;DHT22;48506;48.202;16.274;2023-03-01T08:11:16;5.30;83.50
49124;DHT22;48506;48.202;16.274;2023-03-01T08:13:43;5.30;83.60
49124;DHT22;48506;48.202;16.274;2023-03-01T08:16:14;5.30;83.90
49124;DHT22;48506;48.202;16.274;2023-03-01T08:18:41;5.40;83.40
49124;DHT22;48506;48.202;16.274;2023-03-01T08:21:10;5.40;83.80
49124;DHT22;48506;48.202;16.274;2023-03-01T08:23:38;5.50;83.30
49124;DHT22;48506;48.202;16.274;2023-03-01T08:26:22;5.60;83.10
49124;DHT22;48506;48.202;16.274;2023-03-01T08:28:49;5.70;82.60
49124;DHT22;48506;48.202;16.274;2023-03-01T08:31:32;5.70;82.80
49124;DHT22;48506;48.202;16.274;2023-03-01T08:34:02;5.80;82.30
49124;DHT22;48506;48.202;16.274;2023-03-01T08:36:40;6.00;81.90
49124;DHT22;48506;48.202;16.274;2023-03-01T08:39:09;6.00;82.40
49124;DHT22;48506;48.202;16.274;2023-03-01T08:41:35;6.10;82.30
49124;DHT22;48506;48.202;16.274;2023-03-01T08:44:02;6.20;82.60
49124;DHT22;48506;48.202;16.274;2023-03-01T08:46:30;6.40;81.80
49124;DHT22;48506;48.202;16.274;2023-03-01T08:48:56;6.70;80.50
49124;DHT22;48506;48.202;16.274;2023-03-01T08:51:23;6.90;80.70
49124;DHT22;48506;48.202;16.274;2023-03-01T08:53:50;7.10;80.60
49124;DHT22;48506;48.202;16.274;2023-03-01T08:56:17;7.30;79.80
49124;DHT22;48506;48.202;16.274;2023-03-01T08:58:45;7.50;78.80
49124;DHT22;48506;48.202;16.274;2023-03-01T09:01:14;7.70;79.10
49124;DHT22;48506;48.202;16.274;2023-03-01T09:03:40;7.90;78.90
49124;DHT22;48506;48.202;16.274;2023-03-01T09:06:07;8.10;78.30
49124;DHT22;48506;48.202;16.274;2023-03-01T09:08:39;8.10;76.50
49124;DHT22;48506;48.202;16.274;2023-03-01T09:11:06;8.10;77.20
49124;DHT22;48506;48.202;16.274;2023-03-01T09:13:33;8.30;76.60
49124;DHT22;48506;48.202;16.274;2023-03-01T09:16:01;8.40;76.10
49124;DHT22;48506;48.202;16.274;2023-03-01T09:18:28;8.40;75.90
49124;DHT22;48506;48.202;16.274;2023-03-01T09:21:02;8.50;75.20
49124;DHT22;48506;48.202;16.274;2023-03-01T09:23:37;8.50;75.30
49124;DHT22;48506;48.202;16.274;2023-03-01T09:26:09;8.50;75.20
49124;DHT22;48506;48.202;16.274;2023-03-01T09:28:36;8.50;74.10
49124;DHT22;48506;48.202;16.274;2023-03-01T09:31:04;8.50;74.80
49124;DHT22;48506;48.202;16.274;2023-03-01T09:33:31;8.50;74.40
49124;DHT22;48506;48.202;16.274;2023-03-01T09:35:58;8.60;74.50
49124;DHT22;48506;48.202;16.274;2023-03-01T09:38:24;8.90;74.50
49124;DHT22;48506;48.202;16.274;2023-03-01T09:40:50;9.10;74.30
49124;DHT22;48506;48.202;16.274;2023-03-01T09:44:00;9.30;74.10
49124;DHT22;48506;48.202;16.274;2023-03-01T09:46:32;9.40;72.70
49124;DHT22;48506;48.202;16.274;2023-03-01T09:49:05;9.40;72.50
49124;DHT22;48506;48.202;16.274;2023-03-01T09:51:36;9.40;72.90
49124;DHT22;48506;48.202;16.274;2023-03-01T09:54:05;9.40;71.60
49124;DHT22;48506;48.202;16.274;2023-03-01T09:59:10;9.30;71.50
49124;DHT22;48506;48.202;16.274;2023-03-01T10:01:55;9.30;70.70
49124;DHT22;48506;48.202;16.274;2023-03-01T10:09:41;9.00;70.60
49124;DHT22;48506;48.202;16.274;2023-03-01T10:12:17;9.00;71.30
49124;DHT22;48506;48.202;16.274;2023-03-01T10:17:39;9.00;71.80
49124;DHT22;48506;48.202;16.274;2023-03-01T10:22:47;9.10;71.00
49124;DHT22;48506;48.202;16.274;2023-03-01T10:28:19;9.20;70.60
49124;DHT22;48506;48.202;16.274;2023-03-01T10:30:46;9.20;71.40
49124;DHT22;48506;48.202;16.274;2023-03-01T10:33:22;9.20;71.70
49124;DHT22;48506;48.202;16.274;2023-03-01T10:35:49;9.30;71.70
49124;DHT22;48506;48.202;16.274;2023-03-01T10:38:16;9.30;71.70
49124;DHT22;48506;48.202;16.274;2023-03-01T10:41:05;9.40;71.20
49124;DHT22;48506;48.202;16.274;2023-03-01T10:43:48;9.60;71.30
49124;DHT22;48506;48.202;16.274;2023-03-01T10:49:19;10.00;70.80
49124;DHT22;48506;48.202;16.274;2023-03-01T10:51:48;10.40;69.90
49124;DHT22;48506;48.202;16.274;2023-03-01T10:54:23;10.70;69.90
49124;DHT22;48506;48.202;16.274;2023-03-01T10:56:56;10.80;68.30
49124;DHT22;48506;48.202;16.274;2023-03-01T11:02:17;10.70;68.40
49124;DHT22;48506;48.202;16.274;2023-03-01T11:05:24;10.50;68.70
49124;DHT22;48506;48.202;16.274;2023-03-01T11:07:58;10.50;68.70
49124;DHT22;48506;48.202;16.274;2023-03-01T11:10:33;10.50;68.60
49124;DHT22;48506;48.202;16.274;2023-03-01T11:13:17;10.60;68.60
49124;DHT22;48506;48.202;16.274;2023-03-01T11:16:01;10.50;68.30
49124;DHT22;48506;48.202;16.274;2023-03-01T11:18:30;10.70;68.40
49124;DHT22;48506;48.202;16.274;2023-03-01T11:20:58;10.80;67.50
49124;DHT22;48506;48.202;16.274;2023-03-01T11:23:28;10.90;68.40
49124;DHT22;48506;48.202;16.274;2023-03-01T11:25:56;11.00;66.90
49124;DHT22;48506;48.202;16.274;2023-03-01T11:28:25;11.00;67.00
49124;DHT22;48506;48.202;16.274;2023-03-01T11:38:54;10.80;66.60
49124;DHT22;48506;48.202;16.274;2023-03-01T11:41:25;10.70;67.20
49124;DHT22;48506;48.202;16.274;2023-03-01T11:43:58;10.70;67.20
49124;DHT22;48506;48.202;16.274;2023-03-01T11:49:29;10.80;67.30
49124;DHT22;48506;48.202;16.274;2023-03-01T12:03:20;10.40;67.70
49124;DHT22;48506;48.202;16.274;2023-03-01T12:08:52;10.60;68.70
49124;DHT22;48506;48.202;16.274;2023-03-01T12:14:19;10.80;68.30
49124;DHT22;48506;48.202;16.274;2023-03-01T12:22:37;10.60;68.30
49124;DHT22;48506;48.202;16.274;2023-03-01T12:30:40;10.50;68.40
49124;DHT22;48506;48.202;16.274;2023-03-01T12:49:33;11.00;68.60
49124;DHT22;48506;48.202;16.274;2023-03-01T12:52:11;11.10;68.90
49124;DHT22;48506;48.202;16.274;2023-03-01T12:54:39;11.10;68.90
49124;DHT22;48506;48.202;16.274;2023-03-01T12:57:15;11.20;69.00
49124;DHT22;48506;48.202;16.274;2023-03-01T12:59:51;11.30;69.00
49124;DHT22;48506;48.202;16.274;2023-03-01T13:02:33;11.70;69.40
49124;DHT22;48506;48.202;16.274;2023-03-01T13:05:18;12.20;69.10
49124;DHT22;48506;48.202;16.274;2023-03-01T13:07:55;13.10;68.50
49124;DHT22;48506;48.202;16.274;2023-03-01T13:10:49;13.90;67.50
49124;DHT22;48506;48.202;16.274;2023-03-01T13:13:23;14.50;65.40
49124;DHT22;48506;48.202;16.274;2023-03-01T13:15:50;14.80;63.50
49124;DHT22;48506;48.202;16.274;2023-03-01T13:20:48;14.70;62.70
49124;DHT22;48506;48.202;16.274;2023-03-01T13:31:55;14.10;62.00
49124;DHT22;48506;48.202;16.274;2023-03-01T13:34:43;14.10;64.00
49124;DHT22;48506;48.202;16.274;2023-03-01T13:37:18;14.70;63.10
49124;DHT22;48506;48.202;16.274;2023-03-01T13:39:44;15.40;62.80
49124;DHT22;48506;48.202;16.274;2023-03-01T13:42:33;16.20;60.30
49124;DHT22;48506;48.202;16.274;2023-03-01T13:45:03;16.50;60.10
49124;DHT22;48506;48.202;16.274;2023-03-01T13:47:30;16.80;59.40
49124;DHT22;48506;48.202;16.274;2023-03-01T13:50:01;16.80;58.90
49124;DHT22;48506;48.202;16.274;2023-03-01T13:54:56;16.00;59.10
49124;DHT22;48506;48.202;16.274;2023-03-01T13:57:26;15.50;59.30
49124;DHT22;48506;48.202;16.274;2023-03-01T13:59:54;15.00;60.00
49124;DHT22;48506;48.202;16.274;2023-03-01T14:02:20;14.70;61.20
49124;DHT22;48506;48.202;16.274;2023-03-01T14:04:56;14.50;61.10
49124;DHT22;48506;48.202;16.274;2023-03-01T14:07:24;14.60;61.70
49124;DHT22;48506;48.202;16.274;2023-03-01T14:09:56;14.80;62.10
49124;DHT22;48506;48.202;16.274;2023-03-01T14:17:55;15.40;61.00
49124;DHT22;48506;48.202;16.274;2023-03-01T14:20:37;15.90;60.90
49124;DHT22;48506;48.202;16.274;2023-03-01T14:23:11;16.50;60.10
49124;DHT22;48506;48.202;16.274;2023-03-01T14:25:38;17.50;58.70
49124;DHT22;48506;48.202;16.274;2023-03-01T14:28:13;18.40;57.70
49124;DHT22;48506;48.202;16.274;2023-03-01T14:30:48;18.80;55.60
49124;DHT22;48506;48.202;16.274;2023-03-01T14:38:21;19.40;53.10
49124;DHT22;48506;48.202;16.274;2023-03-01T14:40:51;19.40;52.50
49124;DHT22;48506;48.202;16.274;2023-03-01T14:43:22;18.70;52.60
49124;DHT22;48506;48.202;16.274;2023-03-01T14:45:51;17.90;53.20
49124;DHT22;48506;48.202;16.274;2023-03-01T14:48:17;17.20;54.30
49124;DHT22;48506;48.202;16.274;2023-03-01T14:50:45;16.40;55.40
49124;DHT22;48506;48.202;16.274;2023-03-01T14:53:26;15.60;56.50
49124;DHT22;48506;48.202;16.274;2023-03-01T14:56:04;14.80;58.30
49124;DHT22;48506;48.202;16.274;2023-03-01T14:58:32;14.20;59.90
49124;DHT22;48506;48.202;16.274;2023-03-01T15:01:02;13.90;60.70
49124;DHT22;48506;48.202;16.274;2023-03-01T15:03:41;13.60;61.30
49124;DHT22;48506;48.202;16.274;2023-03-01T15:06:11;13.30;61.80
49124;DHT22;48506;48.202;16.274;2023-03-01T15:08:42;13.00;62.60
49124;DHT22;48506;48.202;16.274;2023-03-01T15:11:30;12.80;63.20
49124;DHT22;48506;48.202;16.274;2023-03-01T15:13:57;12.50;63.80
49124;DHT22;48506;48.202;16.274;2023-03-01T15:16:33;12.40;64.40
49124;DHT22;48506;48.202;16.274;2023-03-01T15:19:03;12.20;65.10
49124;DHT22;48506;48.202;16.274;2023-03-01T15:21:35;12.10;65.50
49124;DHT22;48506;48.202;16.274;2023-03-01T15:26:59;11.80;66.00
49124;DHT22;48506;48.202;16.274;2023-03-01T15:29:33;11.60;66.30
49124;DHT22;48506;48.202;16.274;2023-03-01T15:32:25;11.40;66.60
49124;DHT22;48506;48.202;16.274;2023-03-01T15:34:51;11.20;67.40
49124;DHT22;48506;48.202;16.274;2023-03-01T15:40:25;11.00;68.10
49124;DHT22;48506;48.202;16.274;2023-03-01T15:43:01;10.90;68.60
49124;DHT22;48506;48.202;16.274;2023-03-01T15:45:29;10.80;68.70
49124;DHT22;48506;48.202;16.274;2023-03-01T15:48:02;10.70;69.20
49124;DHT22;48506;48.202;16.274;2023-03-01T15:50:36;10.70;69.30
49124;DHT22;48506;48.202;16.274;2023-03-01T15:53:09;10.60;69.50
49124;DHT22;48506;48.202;16.274;2023-03-01T15:55:38;10.50;70.00
49124;DHT22;48506;48.202;16.274;2023-03-01T15:58:15;10.50;69.90
49124;DHT22;48506;48.202;16.274;2023-03-01T16:00:46;10.40;70.20
49124;DHT22;48506;48.202;16.274;2023-03-01T16:03:14;10.40;70.60
49124;DHT22;48506;48.202;16.274;2023-03-01T16:05:50;10.30;70.60
49124;DHT22;48506;48.202;16.274;2023-03-01T16:08:17;10.20;70.80
49124;DHT22;48506;48.202;16.274;2023-03-01T16:10:43;10.20;71.10
49124;DHT22;48506;48.202;16.274;2023-03-01T16:13:11;10.10;71.20
49124;DHT22;48506;48.202;16.274;2023-03-01T16:15:38;10.00;71.40
49124;DHT22;48506;48.202;16.274;2023-03-01T16:18:06;10.00;71.70
49124;DHT22;48506;48.202;16.274;2023-03-01T16:20:33;9.90;71.60
49124;DHT22;48506;48.202;16.274;2023-03-01T16:23:06;9.90;71.50
49124;DHT22;48506;48.202;16.274;2023-03-01T16:25:34;9.80;71.70
49124;DHT22;48506;48.202;16.274;2023-03-01T16:28:01;9.80;71.70
49124;DHT22;48506;48.202;16.274;2023-03-01T16:30:35;9.80;72.10
49124;DHT22;48506;48.202;16.274;2023-03-01T16:33:01;9.80;72.20
49124;DHT22;48506;48.202;16.274;2023-03-01T16:35:27;9.70;72.80
49124;DHT22;48506;48.202;16.274;2023-03-01T16:37:54;9.70;72.30
49124;DHT22;48506;48.202;16.274;2023-03-01T16:40:26;9.70;72.20
49124;DHT22;48506;48.202;16.274;2023-03-01T16:42:54;9.60;72.40
49124;DHT22;48506;48.202;16.274;2023-03-01T16:45:27;9.60;72.50
49124;DHT22;48506;48.202;16.274;2023-03-01T16:47:54;9.60;72.60
49124;DHT22;48506;48.202;16.274;2023-03-01T16:50:20;9.60;72.70
49124;DHT22;48506;48.202;16.274;2023-03-01T16:52:46;9.50;72.70
49124;DHT22;48506;48.202;16.274;2023-03-01T16:55:12;9.50;72.70
49124;DHT22;48506;48.202;16.274;2023-03-01T16:57:38;9.50;73.00
49124;DHT22;48506;48.202;16.274;2023-03-01T17:00:06;9.50;73.00
49124;DHT22;48506;48.202;16.274;2023-03-01T17:02:35;9.50;73.10
49124;DHT22;48506;48.202;16.274;2023-03-01T17:05:01;9.40;73.20
49124;DHT22;48506;48.202;16.274;2023-03-01T17:07:30;9.40;73.00
49124;DHT22;48506;48.202;16.274;2023-03-01T17:10:01;9.40;72.90
49124;DHT22;48506;48.202;16.274;2023-03-01T17:12:27;9.30;72.80
49124;DHT22;48506;48.202;16.274;2023-03-01T17:14:54;9.30;72.90
49124;DHT22;48506;48.202;16.274;2023-03-01T17:17:21;9.30;73.10
49124;DHT22;48506;48.202;16.274;2023-03-01T17:19:47;9.30;73.00
49124;DHT22;48506;48.202;16.274;2023-03-01T17:22:13;9.30;73.10
49124;DHT22;48506;48.202;16.274;2023-03-01T17:24:40;9.30;73.00
49124;DHT22;48506;48.202;16.274;2023-03-01T17:27:07;9.20;73.20
49124;DHT22;48506;48.202;16.274;2023-03-01T17:29:34;9.20;73.10
49124;DHT22;48506;48.202;16.274;2023-03-01T17:32:01;9.20;73.40
49124;DHT22;48506;48.202;16.274;2023-03-01T17:34:29;9.20;73.40
49124;DHT22;48506;48.202;16.274;2023-03-01T17:36:56;9.20;73.70
49124;DHT22;48506;48.202;16.274;2023-03-01T17:39:22;9.10;73.60